createdAt,value
2016-12-08T00:00:41.716Z,0
2016-12-08T00:01:41.743Z,0
2016-12-08T00:02:41.755Z,0
2016-12-08T00:03:41.779Z,0
2016-12-08T00:05:41.801Z,0
2016-12-08T00:06:41.828Z,0
2016-12-08T00:07:56.761Z,0
2016-12-08T00:08:41.862Z,0
2016-12-08T00:09:41.881Z,0
2016-12-08T00:10:41.895Z,0
2016-12-08T00:11:41.911Z,0
2016-12-08T00:12:41.926Z,0
2016-12-08T00:13:41.943Z,0
2016-12-08T00:14:41.971Z,0
2016-12-08T00:15:56.909Z,0
2016-12-08T00:16:42.008Z,0
2016-12-08T00:17:42.019Z,0
2016-12-08T00:18:42.139Z,0
2016-12-08T00:19:42.066Z,0
2016-12-08T00:20:56.993Z,0
2016-12-08T00:21:42.113Z,0
2016-12-08T00:22:57.033Z,0
2016-12-08T00:23:57.041Z,0
2016-12-08T00:24:42.142Z,0
2016-12-08T00:25:42.157Z,0
2016-12-08T00:26:42.175Z,0
2016-12-08T00:27:57.106Z,0
2016-12-08T00:28:42.210Z,0
2016-12-08T00:29:42.241Z,0
2016-12-08T00:30:42.244Z,0
2016-12-08T00:31:42.263Z,0
2016-12-08T00:32:42.277Z,0
2016-12-08T00:33:42.303Z,0
2016-12-08T00:34:42.323Z,0
2016-12-08T00:35:42.340Z,0
2016-12-08T00:36:42.350Z,0
2016-12-08T00:37:42.373Z,0
2016-12-08T00:38:57.311Z,0
2016-12-08T00:39:42.402Z,0
2016-12-08T00:40:42.421Z,0
2016-12-08T00:41:42.440Z,0
2016-12-08T00:42:42.456Z,0
2016-12-08T00:43:42.483Z,0
2016-12-08T00:44:42.517Z,0
2016-12-08T00:45:42.519Z,0
2016-12-08T00:46:42.527Z,0
2016-12-08T00:47:42.549Z,0
2016-12-08T00:48:42.570Z,0
2016-12-08T00:49:57.602Z,0
2016-12-08T00:50:42.607Z,0
2016-12-08T00:51:42.607Z,0
2016-12-08T00:52:57.561Z,0
2016-12-08T00:53:57.571Z,0
2016-12-08T00:54:42.671Z,0
2016-12-08T00:56:42.715Z,0
2016-12-08T00:57:57.645Z,0
2016-12-08T00:58:42.739Z,0
2016-12-08T00:59:57.684Z,0
2016-12-08T01:00:42.777Z,0
2016-12-08T01:01:42.796Z,0
2016-12-08T01:02:42.809Z,0
2016-12-08T01:03:42.826Z,0
2016-12-08T01:04:42.844Z,0
2016-12-08T01:05:42.865Z,0
2016-12-08T01:06:57.806Z,0
2016-12-08T01:07:42.904Z,0
2016-12-08T01:08:42.920Z,0
2016-12-08T01:09:57.856Z,0
2016-12-08T01:10:57.876Z,0
2016-12-08T01:11:42.972Z,0
2016-12-08T01:12:57.914Z,0
2016-12-08T01:13:43.004Z,0
2016-12-08T01:14:43.017Z,0
2016-12-08T01:15:43.044Z,0
2016-12-08T01:16:43.059Z,0
2016-12-08T01:17:43.073Z,0
2016-12-08T01:18:43.090Z,0
2016-12-08T01:19:58.042Z,0
2016-12-08T01:22:58.090Z,0
2016-12-08T01:24:13.029Z,0
2016-12-08T01:24:43.205Z,0
2016-12-08T01:25:58.153Z,0
2016-12-08T01:26:58.160Z,0
2016-12-08T01:27:43.251Z,0
2016-12-08T01:28:43.271Z,0
2016-12-08T01:29:58.204Z,0
2016-12-08T01:30:43.304Z,0
2016-12-08T01:31:43.320Z,0
2016-12-08T01:32:58.262Z,0
2016-12-08T01:33:43.360Z,0
2016-12-08T01:34:43.377Z,0
2016-12-08T01:35:43.398Z,0
2016-12-08T01:36:43.402Z,0
2016-12-08T01:37:43.426Z,0
2016-12-08T01:38:58.374Z,0
2016-12-08T01:39:58.383Z,0
2016-12-08T01:40:43.480Z,0
2016-12-08T01:41:58.416Z,0
2016-12-08T01:42:58.439Z,0
2016-12-08T01:43:43.538Z,0
2016-12-08T01:44:43.560Z,0
2016-12-08T01:45:43.570Z,0
2016-12-08T01:46:43.583Z,0
2016-12-08T01:47:43.606Z,0
2016-12-08T01:48:43.627Z,0
2016-12-08T01:49:43.642Z,0
2016-12-08T01:50:43.649Z,0
2016-12-08T01:51:43.668Z,0
2016-12-08T01:52:43.691Z,0
2016-12-08T01:53:43.711Z,0
2016-12-08T01:54:43.726Z,0
2016-12-08T01:55:43.739Z,0
2016-12-08T01:56:43.807Z,0
2016-12-08T01:57:58.699Z,0
2016-12-08T01:58:58.716Z,0
2016-12-08T01:59:58.734Z,0
2016-12-08T02:00:58.747Z,0
2016-12-08T02:01:43.847Z,0
2016-12-08T02:02:43.866Z,0
2016-12-08T02:03:43.885Z,0
2016-12-08T02:04:43.899Z,0
2016-12-08T02:05:43.917Z,0
2016-12-08T02:06:58.902Z,0
2016-12-08T02:07:58.871Z,0
2016-12-08T02:08:43.971Z,0
2016-12-08T02:09:43.986Z,0
2016-12-08T02:10:44.027Z,0
2016-12-08T02:11:58.942Z,0
2016-12-08T02:12:58.960Z,0
2016-12-08T02:13:58.981Z,0
2016-12-08T02:14:44.077Z,0
2016-12-08T02:15:44.090Z,0
2016-12-08T02:16:44.116Z,0
2016-12-08T02:17:44.127Z,0
2016-12-08T02:18:44.147Z,0
2016-12-08T02:19:44.163Z,0
2016-12-08T02:20:44.178Z,0
2016-12-08T02:21:44.200Z,0
2016-12-08T02:22:44.212Z,0
2016-12-08T02:23:44.286Z,0
2016-12-08T02:24:59.173Z,0
2016-12-08T02:25:44.267Z,0
2016-12-08T02:27:59.228Z,0
2016-12-08T02:28:44.311Z,0
2016-12-08T02:29:59.257Z,0
2016-12-08T02:30:44.355Z,0
2016-12-08T02:31:44.392Z,0
2016-12-08T02:32:44.413Z,0
2016-12-08T02:33:44.437Z,0
2016-12-08T02:34:44.725Z,0
2016-12-08T02:35:44.440Z,0
2016-12-08T02:36:44.448Z,0
2016-12-08T02:37:44.472Z,0
2016-12-08T02:38:44.601Z,0
2016-12-08T02:39:44.513Z,0
2016-12-08T02:40:44.837Z,0
2016-12-08T02:41:44.547Z,0
2016-12-08T02:42:44.574Z,0
2016-12-08T02:43:44.581Z,0
2016-12-08T02:44:59.525Z,0
2016-12-08T02:45:59.540Z,0
2016-12-08T02:46:59.554Z,0
2016-12-08T02:48:44.663Z,0
2016-12-08T02:49:44.687Z,0
2016-12-08T02:50:44.709Z,0
2016-12-08T02:51:44.714Z,0
2016-12-08T02:52:44.745Z,0
2016-12-08T02:53:44.752Z,0
2016-12-08T02:54:44.781Z,0
2016-12-08T02:56:59.729Z,0
2016-12-08T02:57:44.830Z,0
2016-12-08T02:58:44.842Z,0
2016-12-08T02:59:44.856Z,0
2016-12-08T03:00:59.797Z,0
2016-12-08T03:01:59.816Z,0
2016-12-08T03:02:59.842Z,0
2016-12-08T03:03:59.846Z,0
2016-12-08T03:04:44.969Z,0
2016-12-08T03:05:44.970Z,0
2016-12-08T03:06:44.979Z,0
2016-12-08T03:07:44.996Z,0
2016-12-08T03:08:45.018Z,0
2016-12-08T03:09:45.032Z,0
2016-12-08T03:10:45.058Z,0
2016-12-08T03:11:45.073Z,0
2016-12-08T03:13:00.013Z,0
2016-12-08T03:14:00.024Z,0
2016-12-08T03:14:45.124Z,0
2016-12-08T03:16:00.057Z,0
2016-12-08T03:16:45.163Z,0
2016-12-08T03:18:00.092Z,0
2016-12-08T03:18:45.190Z,0
2016-12-08T03:19:45.214Z,0
2016-12-08T03:20:45.221Z,0
2016-12-08T03:21:45.240Z,0
2016-12-08T03:22:45.271Z,0
2016-12-08T03:23:45.273Z,0
2016-12-08T03:24:45.297Z,0
2016-12-08T03:26:45.342Z,0
2016-12-08T03:28:00.275Z,0
2016-12-08T03:28:45.372Z,0
2016-12-08T03:31:00.323Z,0
2016-12-08T03:32:15.267Z,0
2016-12-08T03:32:45.453Z,0
2016-12-08T03:34:00.375Z,0
2016-12-08T03:35:00.389Z,0
2016-12-08T03:35:45.498Z,0
2016-12-08T03:36:45.510Z,0
2016-12-08T03:37:45.817Z,0
2016-12-08T03:38:45.540Z,0
2016-12-08T03:39:45.548Z,0
2016-12-08T03:40:45.573Z,0
2016-12-08T03:41:45.592Z,0
2016-12-08T03:43:45.615Z,0
2016-12-08T03:44:45.634Z,0
2016-12-08T03:45:45.684Z,0
2016-12-08T03:46:45.668Z,0
2016-12-08T03:47:45.690Z,0
2016-12-08T03:49:00.630Z,0
2016-12-08T03:49:45.724Z,0
2016-12-08T03:51:00.664Z,0
2016-12-08T03:51:45.809Z,0
2016-12-08T03:53:00.697Z,0
2016-12-08T03:53:45.793Z,0
2016-12-08T03:54:45.807Z,0
2016-12-08T03:55:45.832Z,0
2016-12-08T03:57:45.863Z,0
2016-12-08T03:58:45.880Z,0
2016-12-08T03:59:45.909Z,0
2016-12-08T04:00:45.913Z,0
2016-12-08T04:01:45.933Z,0
2016-12-08T04:02:45.952Z,0
2016-12-08T04:04:00.896Z,0
2016-12-08T04:05:00.909Z,0
2016-12-08T04:05:46.009Z,0
2016-12-08T04:06:46.020Z,0
2016-12-08T04:08:46.055Z,0
2016-12-08T04:09:46.071Z,0
2016-12-08T04:10:46.089Z,0
2016-12-08T04:11:46.105Z,0
2016-12-08T04:12:46.126Z,0
2016-12-08T04:13:46.144Z,0
2016-12-08T04:14:46.160Z,0
2016-12-08T04:16:01.102Z,0
2016-12-08T04:16:46.192Z,0
2016-12-08T04:18:01.137Z,0
2016-12-08T04:18:46.228Z,0
2016-12-08T04:19:46.248Z,0
2016-12-08T04:21:01.190Z,0
2016-12-08T04:21:46.280Z,0
2016-12-08T04:22:46.347Z,0
2016-12-08T04:23:46.315Z,0
2016-12-08T04:26:01.300Z,0
2016-12-08T04:26:46.370Z,0
2016-12-08T04:27:46.385Z,0
2016-12-08T04:28:46.408Z,0
2016-12-08T04:29:46.420Z,0
2016-12-08T04:31:01.366Z,0
2016-12-08T04:31:46.461Z,0
2016-12-08T04:32:46.472Z,0
2016-12-08T04:33:46.492Z,0
2016-12-08T04:35:01.437Z,0
2016-12-08T04:35:46.521Z,0
2016-12-08T04:37:16.397Z,0
2016-12-08T04:38:01.488Z,0
2016-12-08T04:38:46.581Z,0
2016-12-08T04:39:47.605Z,0
2016-12-08T04:40:46.613Z,0
2016-12-08T04:41:46.630Z,0
2016-12-08T04:42:46.648Z,0
2016-12-08T04:43:46.665Z,0
2016-12-08T04:44:46.732Z,0
2016-12-08T04:47:01.646Z,0
2016-12-08T04:47:46.745Z,0
2016-12-08T04:49:01.679Z,0
2016-12-08T04:49:46.773Z,0
2016-12-08T04:50:47.086Z,0
2016-12-08T04:52:01.728Z,0
2016-12-08T04:53:01.748Z,0
2016-12-08T04:53:46.839Z,0
2016-12-08T04:55:01.782Z,0
2016-12-08T04:55:46.879Z,0
2016-12-08T04:56:46.895Z,0
2016-12-08T04:57:46.916Z,0
2016-12-08T04:58:46.933Z,0
2016-12-08T04:59:46.946Z,0
2016-12-08T05:00:46.962Z,0
2016-12-08T05:01:46.980Z,0
2016-12-08T05:02:47.000Z,0
2016-12-08T05:03:47.017Z,0
2016-12-08T05:04:47.034Z,0
2016-12-08T05:05:47.076Z,0
2016-12-08T05:06:47.071Z,0
2016-12-08T05:07:47.083Z,0
2016-12-08T05:09:02.027Z,0
2016-12-08T05:09:47.120Z,0
2016-12-08T05:10:47.138Z,0
2016-12-08T05:12:02.079Z,0
2016-12-08T05:13:02.107Z,0
2016-12-08T05:13:47.195Z,0
2016-12-08T05:14:47.212Z,0
2016-12-08T05:15:47.224Z,0
2016-12-08T05:16:47.246Z,0
2016-12-08T05:17:47.267Z,0
2016-12-08T05:18:47.281Z,0
2016-12-08T05:19:47.322Z,0
2016-12-08T05:20:47.314Z,0
2016-12-08T05:21:47.332Z,0
2016-12-08T05:22:47.371Z,0
2016-12-08T05:24:02.301Z,0
2016-12-08T05:25:47.421Z,0
2016-12-08T05:26:47.436Z,0
2016-12-08T05:27:47.451Z,0
2016-12-08T05:28:47.465Z,0
2016-12-08T05:29:47.478Z,0
2016-12-08T05:30:47.490Z,0
2016-12-08T05:31:47.511Z,0
2016-12-08T05:32:47.532Z,0
2016-12-08T05:33:47.550Z,0
2016-12-08T05:34:47.567Z,0
2016-12-08T05:35:47.596Z,0
2016-12-08T05:36:47.605Z,0
2016-12-08T05:37:47.619Z,0
2016-12-08T05:38:47.636Z,0
2016-12-08T05:39:47.657Z,0
2016-12-08T05:40:47.680Z,0
2016-12-08T05:41:47.694Z,0
2016-12-08T05:42:47.712Z,0
2016-12-08T05:43:47.733Z,0
2016-12-08T05:44:47.743Z,0
2016-12-08T05:45:47.755Z,0
2016-12-08T05:46:47.774Z,0
2016-12-08T05:47:47.794Z,0
2016-12-08T05:48:47.819Z,0
2016-12-08T05:49:47.827Z,0
2016-12-08T05:51:02.770Z,0
2016-12-08T05:51:47.870Z,0
2016-12-08T05:53:47.907Z,0
2016-12-08T05:54:47.919Z,0
2016-12-08T05:56:02.860Z,0
2016-12-08T05:56:47.961Z,0
2016-12-08T05:57:47.974Z,0
2016-12-08T05:58:47.988Z,0
2016-12-08T05:59:48.005Z,0
2016-12-08T06:01:02.951Z,0
2016-12-08T06:01:48.044Z,0
2016-12-08T06:02:48.204Z,0
2016-12-08T06:03:48.075Z,0
2016-12-08T06:04:48.393Z,0
2016-12-08T06:05:48.119Z,0
2016-12-08T06:06:48.132Z,0
2016-12-08T06:07:48.231Z,0
2016-12-08T06:08:48.156Z,0
2016-12-08T06:09:48.180Z,0
2016-12-08T06:10:48.199Z,0
2016-12-08T06:12:03.444Z,0
2016-12-08T06:12:48.239Z,0
2016-12-08T06:14:03.180Z,0
2016-12-08T06:14:48.274Z,0
2016-12-08T06:15:48.307Z,0
2016-12-08T06:16:48.307Z,0
2016-12-08T06:17:48.323Z,0
2016-12-08T06:18:48.343Z,0
2016-12-08T06:19:48.356Z,0
2016-12-08T06:20:48.380Z,0
2016-12-08T06:21:48.391Z,0
2016-12-08T06:23:03.328Z,0
2016-12-08T06:23:48.457Z,0
2016-12-08T06:24:48.442Z,0
2016-12-08T06:25:48.469Z,0
2016-12-08T06:27:03.413Z,0
2016-12-08T06:28:03.420Z,0
2016-12-08T06:28:48.568Z,0
2016-12-08T06:29:48.532Z,0
2016-12-08T06:31:48.566Z,0
2016-12-08T06:33:03.513Z,0
2016-12-08T06:33:48.606Z,0
2016-12-08T06:34:48.625Z,0
2016-12-08T06:35:48.638Z,0
2016-12-08T06:36:48.663Z,0
2016-12-08T06:38:03.593Z,0
2016-12-08T06:38:48.694Z,0
2016-12-08T06:39:48.782Z,0
2016-12-08T06:40:48.725Z,0
2016-12-08T06:42:03.674Z,0
2016-12-08T06:42:48.961Z,0
2016-12-08T06:44:03.708Z,0
2016-12-08T06:44:48.792Z,0
2016-12-08T06:45:48.816Z,0
2016-12-08T06:46:48.831Z,0
2016-12-08T06:48:48.864Z,0
2016-12-08T06:49:49.887Z,0
2016-12-08T06:50:48.963Z,0
2016-12-08T06:51:49.220Z,0
2016-12-08T06:53:03.893Z,0
2016-12-08T06:53:48.959Z,0
2016-12-08T06:54:48.974Z,0
2016-12-08T06:56:49.013Z,0
2016-12-08T06:58:03.955Z,0
2016-12-08T06:59:03.964Z,0
2016-12-08T07:00:03.986Z,0
2016-12-08T07:00:49.384Z,0
2016-12-08T07:01:49.416Z,5
2016-12-08T07:02:49.117Z,5
2016-12-08T07:03:49.127Z,5
2016-12-08T07:04:49.153Z,5
2016-12-08T07:05:49.164Z,5
2016-12-08T07:06:49.179Z,5
2016-12-08T07:07:49.201Z,5
2016-12-08T07:08:49.238Z,5
2016-12-08T07:10:04.159Z,5
2016-12-08T07:11:04.169Z,10
2016-12-08T07:11:49.292Z,10
2016-12-08T07:13:04.209Z,10
2016-12-08T07:13:49.312Z,10
2016-12-08T07:14:49.332Z,10
2016-12-08T07:16:04.260Z,10
2016-12-08T07:16:49.353Z,10
2016-12-08T07:18:04.293Z,10
2016-12-08T07:18:49.392Z,15
2016-12-08T07:19:49.439Z,15
2016-12-08T07:20:49.424Z,15
2016-12-08T07:21:49.450Z,15
2016-12-08T07:22:49.465Z,15
2016-12-08T07:23:49.483Z,15
2016-12-08T07:24:49.496Z,15
2016-12-08T07:26:04.468Z,15
2016-12-08T07:26:49.528Z,15
2016-12-08T07:28:04.477Z,20
2016-12-08T07:29:04.492Z,20
2016-12-08T07:31:04.532Z,20
2016-12-08T07:32:04.541Z,20
2016-12-08T07:32:49.638Z,20
2016-12-08T07:33:49.655Z,20
2016-12-08T07:34:49.678Z,25
2016-12-08T07:35:49.698Z,25
2016-12-08T07:36:49.714Z,25
2016-12-08T07:37:49.724Z,25
2016-12-08T07:38:50.050Z,25
2016-12-08T07:39:49.760Z,30
2016-12-08T07:40:49.796Z,30
2016-12-08T07:41:49.801Z,30
2016-12-08T07:42:49.819Z,30
2016-12-08T07:43:49.836Z,30
2016-12-08T07:44:49.853Z,35
2016-12-08T07:45:49.871Z,35
2016-12-08T07:47:04.804Z,35
2016-12-08T07:47:49.906Z,35
2016-12-08T07:48:49.913Z,40
2016-12-08T07:50:04.868Z,40
2016-12-08T07:50:49.973Z,40
2016-12-08T07:51:49.983Z,40
2016-12-08T07:52:49.985Z,40
2016-12-08T07:53:50.014Z,45
2016-12-08T07:54:50.031Z,45
2016-12-08T07:55:50.046Z,45
2016-12-08T07:56:50.071Z,50
2016-12-08T07:57:50.098Z,50
2016-12-08T07:58:50.094Z,55
2016-12-08T07:59:50.126Z,55
2016-12-08T08:01:05.054Z,55
2016-12-08T08:02:05.074Z,55
2016-12-08T08:03:05.095Z,55
2016-12-08T08:03:50.218Z,55
2016-12-08T08:04:50.212Z,60
2016-12-08T08:05:50.229Z,60
2016-12-08T08:06:50.550Z,60
2016-12-08T08:08:50.286Z,65
2016-12-08T08:10:05.221Z,65
2016-12-08T08:10:50.510Z,65
2016-12-08T08:11:50.334Z,65
2016-12-08T08:12:50.353Z,65
2016-12-08T08:13:50.370Z,65
2016-12-08T08:14:50.387Z,70
2016-12-08T08:15:50.408Z,70
2016-12-08T08:16:50.738Z,70
2016-12-08T08:18:05.369Z,75
2016-12-08T08:19:05.385Z,75
2016-12-08T08:19:50.481Z,75
2016-12-08T08:20:50.500Z,80
2016-12-08T08:21:50.520Z,80
2016-12-08T08:22:50.532Z,80
2016-12-08T08:23:50.555Z,85
2016-12-08T08:25:50.598Z,85
2016-12-08T08:27:05.532Z,85
2016-12-08T08:27:50.930Z,85
2016-12-08T08:28:50.652Z,85
2016-12-08T08:29:50.663Z,85
2016-12-08T08:30:50.691Z,85
2016-12-08T08:31:50.705Z,85
2016-12-08T08:32:50.734Z,90
2016-12-08T08:34:05.967Z,90
2016-12-08T08:34:50.764Z,95
2016-12-08T08:35:50.782Z,90
2016-12-08T08:36:50.797Z,90
2016-12-08T08:37:50.818Z,90
2016-12-08T08:39:05.761Z,95
2016-12-08T08:41:05.797Z,115
2016-12-08T08:42:05.820Z,115
2016-12-08T08:42:50.916Z,115
2016-12-08T08:43:50.931Z,115
2016-12-08T08:45:05.926Z,115
2016-12-08T08:45:50.964Z,115
2016-12-08T08:47:05.910Z,115
2016-12-08T08:48:05.957Z,115
2016-12-08T08:48:51.020Z,120
2016-12-08T08:49:51.050Z,120
2016-12-08T08:51:05.980Z,115
2016-12-08T08:52:06.004Z,105
2016-12-08T08:53:06.027Z,105
2016-12-08T08:53:51.122Z,105
2016-12-08T08:55:51.156Z,100
2016-12-08T08:57:06.103Z,100
2016-12-08T08:57:51.196Z,100
2016-12-08T08:58:51.213Z,100
2016-12-08T09:00:06.159Z,100
2016-12-08T09:00:51.252Z,100
2016-12-08T09:01:51.273Z,100
2016-12-08T09:02:51.313Z,100
2016-12-08T09:03:51.310Z,100
2016-12-08T09:04:51.359Z,100
2016-12-08T09:06:06.273Z,95
2016-12-08T09:06:51.387Z,90
2016-12-08T09:08:06.323Z,90
2016-12-08T09:08:51.468Z,90
2016-12-08T09:09:51.431Z,95
2016-12-08T09:10:51.478Z,100
2016-12-08T09:12:06.398Z,95
2016-12-08T09:12:51.490Z,95
2016-12-08T09:14:06.435Z,90
2016-12-08T09:14:51.531Z,90
2016-12-08T09:16:06.471Z,85
2016-12-08T09:17:06.501Z,85
2016-12-08T09:17:51.597Z,85
2016-12-08T09:19:06.570Z,90
2016-12-08T09:20:06.555Z,90
2016-12-08T09:20:51.648Z,90
2016-12-08T09:22:07.510Z,90
2016-12-08T09:23:06.615Z,90
2016-12-08T09:23:52.014Z,90
2016-12-08T09:24:51.726Z,90
2016-12-08T09:25:51.752Z,90
2016-12-08T09:26:51.928Z,95
2016-12-08T09:27:51.782Z,95
2016-12-08T09:28:51.805Z,95
2016-12-08T09:29:51.831Z,95
2016-12-08T09:31:51.863Z,95
2016-12-08T09:32:51.889Z,95
2016-12-08T09:33:51.909Z,95
2016-12-08T09:34:51.925Z,95
2016-12-08T09:36:51.974Z,95
2016-12-08T09:38:06.913Z,95
2016-12-08T09:39:06.928Z,90
2016-12-08T09:39:52.031Z,90
2016-12-08T09:40:52.048Z,95
2016-12-08T09:41:52.076Z,90
2016-12-08T09:42:52.091Z,95
2016-12-08T09:43:52.108Z,95
2016-12-08T09:44:52.122Z,95
2016-12-08T09:45:52.148Z,95
2016-12-08T09:47:07.088Z,95
2016-12-08T09:47:52.193Z,95
2016-12-08T09:48:52.208Z,90
2016-12-08T09:49:52.540Z,90
2016-12-08T09:51:07.183Z,85
2016-12-08T09:51:52.280Z,85
2016-12-08T09:54:07.230Z,80
2016-12-08T09:55:07.250Z,80
2016-12-08T09:55:52.456Z,80
2016-12-08T09:57:52.391Z,75
2016-12-08T09:59:52.475Z,75
2016-12-08T10:00:52.448Z,75
2016-12-08T10:01:52.472Z,70
2016-12-08T10:02:52.490Z,70
2016-12-08T10:03:52.510Z,70
2016-12-08T10:05:07.451Z,70
2016-12-08T10:05:52.555Z,70
2016-12-08T10:07:07.503Z,70
2016-12-08T10:07:52.899Z,75
2016-12-08T10:09:07.601Z,75
2016-12-08T10:09:52.632Z,75
2016-12-08T10:10:52.652Z,75
2016-12-08T10:11:52.677Z,75
2016-12-08T10:12:52.692Z,75
2016-12-08T10:13:52.719Z,75
2016-12-08T10:14:52.739Z,75
2016-12-08T10:16:07.679Z,80
2016-12-08T10:16:52.771Z,80
2016-12-08T10:17:52.799Z,80
2016-12-08T10:18:52.812Z,80
2016-12-08T10:19:52.825Z,80
2016-12-08T10:21:07.776Z,80
2016-12-08T10:21:52.889Z,80
2016-12-08T10:22:52.893Z,85
2016-12-08T10:23:52.912Z,85
2016-12-08T10:24:52.940Z,90
2016-12-08T10:25:52.958Z,95
2016-12-08T10:27:52.987Z,95
2016-12-08T10:28:53.017Z,95
2016-12-08T10:29:53.035Z,95
2016-12-08T10:30:53.059Z,95
2016-12-08T10:31:53.078Z,95
2016-12-08T10:32:53.100Z,95
2016-12-08T10:33:53.172Z,95
2016-12-08T10:34:53.133Z,95
2016-12-08T10:35:53.162Z,95
2016-12-08T10:36:53.175Z,100
2016-12-08T10:38:08.123Z,100
2016-12-08T10:38:53.211Z,100
2016-12-08T10:39:53.239Z,100
2016-12-08T10:41:23.105Z,105
2016-12-08T10:42:08.199Z,100
2016-12-08T10:42:53.603Z,105
2016-12-08T10:43:53.628Z,105
2016-12-08T10:44:53.347Z,100
2016-12-08T10:45:53.369Z,100
2016-12-08T10:47:08.308Z,100
2016-12-08T10:47:53.407Z,100
2016-12-08T10:48:53.426Z,100
2016-12-08T10:50:08.367Z,100
2016-12-08T10:50:53.464Z,100
2016-12-08T10:51:53.481Z,100
2016-12-08T10:52:53.504Z,95
2016-12-08T10:54:23.378Z,95
2016-12-08T10:54:53.599Z,95
2016-12-08T10:55:53.562Z,95
2016-12-08T10:57:08.513Z,95
2016-12-08T10:57:53.917Z,95
2016-12-08T10:58:53.636Z,95
2016-12-08T10:59:53.654Z,95
2016-12-08T11:00:53.672Z,95
2016-12-08T11:01:53.699Z,95
2016-12-08T11:02:53.712Z,95
2016-12-08T11:03:53.737Z,95
2016-12-08T11:04:53.761Z,95
2016-12-08T11:05:53.782Z,90
2016-12-08T11:06:53.798Z,85
2016-12-08T11:07:53.823Z,85
2016-12-08T11:08:53.842Z,80
2016-12-08T11:09:53.863Z,80
2016-12-08T11:10:53.876Z,75
2016-12-08T11:11:53.900Z,80
2016-12-08T11:13:08.849Z,80
2016-12-08T11:13:53.952Z,80
2016-12-08T11:15:53.978Z,75
2016-12-08T11:16:54.008Z,80
2016-12-08T11:18:08.955Z,80
2016-12-08T11:19:08.975Z,75
2016-12-08T11:19:54.069Z,75
2016-12-08T11:21:09.017Z,75
2016-12-08T11:21:54.120Z,75
2016-12-08T11:22:54.139Z,75
2016-12-08T11:23:54.156Z,75
2016-12-08T11:25:09.106Z,75
2016-12-08T11:27:09.143Z,75
2016-12-08T11:27:54.275Z,75
2016-12-08T11:29:09.485Z,65
2016-12-08T11:29:54.283Z,75
2016-12-08T11:30:54.603Z,75
2016-12-08T11:31:54.328Z,70
2016-12-08T11:32:54.343Z,75
2016-12-08T11:34:54.388Z,65
2016-12-08T11:35:54.415Z,65
2016-12-08T11:37:09.351Z,70
2016-12-08T11:37:54.447Z,70
2016-12-08T11:38:54.475Z,65
2016-12-08T11:39:54.502Z,65
2016-12-08T11:40:54.523Z,60
2016-12-08T11:42:54.557Z,50
2016-12-08T11:44:09.506Z,50
2016-12-08T11:44:54.593Z,55
2016-12-08T11:45:54.628Z,55
2016-12-08T11:46:54.636Z,55
2016-12-08T11:47:54.660Z,55
2016-12-08T11:48:54.687Z,60
2016-12-08T11:49:54.703Z,55
2016-12-08T11:50:54.723Z,60
2016-12-08T11:51:54.743Z,60
2016-12-08T11:52:54.766Z,65
2016-12-08T11:53:54.788Z,75
2016-12-08T11:55:09.747Z,65
2016-12-08T11:56:09.762Z,75
2016-12-08T11:56:54.848Z,70
2016-12-08T11:57:54.875Z,65
2016-12-08T11:58:54.892Z,75
2016-12-08T11:59:54.927Z,75
2016-12-08T12:01:54.957Z,80
2016-12-08T12:02:54.983Z,80
2016-12-08T12:03:54.998Z,70
2016-12-08T12:04:55.024Z,80
2016-12-08T12:05:55.046Z,80
2016-12-08T12:06:55.063Z,75
2016-12-08T12:07:55.091Z,80
2016-12-08T12:08:55.112Z,80
2016-12-08T12:10:55.451Z,85
2016-12-08T12:11:55.169Z,75
2016-12-08T12:12:55.187Z,80
2016-12-08T12:13:55.243Z,85
2016-12-08T12:15:10.158Z,75
2016-12-08T12:16:10.178Z,80
2016-12-08T12:16:55.277Z,80
2016-12-08T12:17:55.296Z,80
2016-12-08T12:18:55.318Z,80
2016-12-08T12:19:55.393Z,80
2016-12-08T12:20:55.374Z,80
2016-12-08T12:22:10.308Z,80
2016-12-08T12:22:55.409Z,80
2016-12-08T12:23:55.428Z,80
2016-12-08T12:24:55.459Z,80
2016-12-08T12:26:10.391Z,80
2016-12-08T12:27:10.732Z,75
2016-12-08T12:27:55.510Z,70
2016-12-08T12:29:10.453Z,65
2016-12-08T12:29:55.563Z,60
2016-12-08T12:30:55.596Z,55
2016-12-08T12:32:10.519Z,55
2016-12-08T12:32:55.623Z,60
2016-12-08T12:33:55.647Z,60
2016-12-08T12:35:55.687Z,65
2016-12-08T12:36:55.702Z,60
2016-12-08T12:37:55.732Z,60
2016-12-08T12:38:55.804Z,60
2016-12-08T12:39:55.781Z,65
2016-12-08T12:40:56.116Z,60
2016-12-08T12:42:55.836Z,55
2016-12-08T12:43:55.885Z,65
2016-12-08T12:44:55.876Z,65
2016-12-08T12:45:56.216Z,60
2016-12-08T12:46:55.928Z,60
2016-12-08T12:48:10.863Z,65
2016-12-08T12:48:55.966Z,65
2016-12-08T12:49:55.988Z,60
2016-12-08T12:50:56.008Z,55
2016-12-08T12:51:56.032Z,55
2016-12-08T12:52:56.046Z,50
2016-12-08T12:53:56.074Z,55
2016-12-08T12:54:56.085Z,55
2016-12-08T12:55:56.133Z,60
2016-12-08T12:57:11.473Z,60
2016-12-08T12:57:56.158Z,60
2016-12-08T12:58:56.179Z,65
2016-12-08T12:59:56.195Z,60
2016-12-08T13:00:56.217Z,60
2016-12-08T13:01:56.246Z,60
2016-12-08T13:03:11.186Z,60
2016-12-08T13:04:11.248Z,65
2016-12-08T13:05:11.234Z,65
2016-12-08T13:05:56.326Z,60
2016-12-08T13:06:56.349Z,60
2016-12-08T13:08:11.289Z,60
2016-12-08T13:09:11.319Z,60
2016-12-08T13:09:56.417Z,60
2016-12-08T13:10:56.742Z,60
2016-12-08T13:11:56.460Z,55
2016-12-08T13:12:56.479Z,55
2016-12-08T13:13:56.502Z,55
2016-12-08T13:15:11.440Z,55
2016-12-08T13:15:56.537Z,55
2016-12-08T13:17:26.415Z,60
2016-12-08T13:19:11.526Z,60
2016-12-08T13:19:56.639Z,60
2016-12-08T13:20:56.652Z,60
2016-12-08T13:21:56.680Z,50
2016-12-08T13:22:56.690Z,50
2016-12-08T13:23:56.709Z,50
2016-12-08T13:24:56.744Z,50
2016-12-08T13:25:56.761Z,50
2016-12-08T13:26:56.785Z,50
2016-12-08T13:27:56.796Z,50
2016-12-08T13:28:56.825Z,45
2016-12-08T13:29:56.852Z,45
2016-12-08T13:30:56.866Z,45
2016-12-08T13:31:56.886Z,45
2016-12-08T13:32:56.941Z,45
2016-12-08T13:33:56.927Z,45
2016-12-08T13:34:56.957Z,45
2016-12-08T13:35:56.983Z,45
2016-12-08T13:36:56.993Z,45
2016-12-08T13:37:57.021Z,45
2016-12-08T13:38:57.046Z,40
2016-12-08T13:39:57.061Z,40
2016-12-08T13:40:57.079Z,40
2016-12-08T13:41:57.110Z,40
2016-12-08T13:42:57.130Z,40
2016-12-08T13:43:57.152Z,40
2016-12-08T13:44:57.166Z,35
2016-12-08T13:46:12.127Z,35
2016-12-08T13:47:12.140Z,35
2016-12-08T13:48:12.185Z,30
2016-12-08T13:49:27.106Z,30
2016-12-08T13:50:12.199Z,30
2016-12-08T13:51:12.267Z,25
2016-12-08T13:51:57.318Z,25
2016-12-08T13:52:57.351Z,25
2016-12-08T13:53:57.361Z,25
2016-12-08T13:54:57.387Z,25
2016-12-08T13:55:57.413Z,20
2016-12-08T13:56:57.430Z,20
2016-12-08T13:57:57.505Z,20
2016-12-08T13:58:57.779Z,20
2016-12-08T13:59:57.794Z,20
2016-12-08T14:00:57.506Z,20
2016-12-08T14:01:57.546Z,20
2016-12-08T14:02:57.562Z,20
2016-12-08T14:04:12.493Z,20
2016-12-08T14:04:57.613Z,20
2016-12-08T14:05:57.635Z,20
2016-12-08T14:07:12.569Z,20
2016-12-08T14:07:57.698Z,20
2016-12-08T14:08:57.686Z,20
2016-12-08T14:09:57.709Z,15
2016-12-08T14:11:12.654Z,15
2016-12-08T14:11:57.752Z,15
2016-12-08T14:12:57.770Z,15
2016-12-08T14:13:57.785Z,15
2016-12-08T14:15:57.831Z,15
2016-12-08T14:16:57.883Z,15
2016-12-08T14:17:57.878Z,15
2016-12-08T14:18:57.903Z,15
2016-12-08T14:19:58.227Z,15
2016-12-08T14:20:57.995Z,15
2016-12-08T14:21:57.961Z,10
2016-12-08T14:23:12.907Z,10
2016-12-08T14:23:58.028Z,10
2016-12-08T14:24:58.025Z,10
2016-12-08T14:25:58.058Z,10
2016-12-08T14:27:13.046Z,10
2016-12-08T14:27:58.103Z,5
2016-12-08T14:29:13.036Z,5
2016-12-08T14:29:58.137Z,5
2016-12-08T14:30:58.186Z,5
2016-12-08T14:31:58.173Z,5
2016-12-08T14:32:58.195Z,5
2016-12-08T14:33:58.210Z,5
2016-12-08T14:35:13.169Z,5
2016-12-08T14:36:13.189Z,5
2016-12-08T14:36:58.285Z,5
2016-12-08T14:37:58.295Z,5
2016-12-08T14:39:13.244Z,0
2016-12-08T14:39:58.349Z,0
2016-12-08T14:40:58.370Z,0
2016-12-08T14:41:58.389Z,0
2016-12-08T14:42:58.408Z,0
2016-12-08T14:43:58.436Z,0
2016-12-08T14:44:58.454Z,0
2016-12-08T14:46:13.398Z,0
2016-12-08T14:46:58.499Z,0
2016-12-08T14:47:58.517Z,0
2016-12-08T14:48:58.540Z,0
2016-12-08T14:49:58.573Z,0
2016-12-08T14:50:58.589Z,0
2016-12-08T14:51:58.599Z,0
2016-12-08T14:52:58.634Z,0
2016-12-08T14:54:28.493Z,0
2016-12-08T14:55:13.583Z,0
2016-12-08T14:55:58.692Z,0
2016-12-08T14:56:58.713Z,0
2016-12-08T14:57:58.729Z,0
2016-12-08T14:58:58.745Z,0
2016-12-08T14:59:58.779Z,0
2016-12-08T15:00:58.855Z,0
2016-12-08T15:02:58.837Z,0
2016-12-08T15:03:58.873Z,0
2016-12-08T15:05:13.807Z,0
2016-12-08T15:06:13.830Z,0
2016-12-08T15:06:58.929Z,0
2016-12-08T15:07:58.944Z,0
2016-12-08T15:09:13.912Z,0
2016-12-08T15:10:13.903Z,0
2016-12-08T15:11:13.983Z,0
2016-12-08T15:11:59.020Z,0